Time;durP1;ratioP1;P1;durP2;ratioP2;P2;SDS_P1;SDS_P2;PMS_P1;PMS_P2;Temp;Humidity;BMP_temperature;BMP_pressure;BME280_temperature;BME280_humidity;BME280_pressure;Samples;Min_cycle;Max_cycle;Signal;HPM_P1;HPM_P2
2022/08/03 00:01:19;;;;;;;3.33;2.50;;;19.10;99.90;;;;;;4363775;28;10000638;-76
2022/08/03 00:03:45;;;;;;;2.47;2.33;;;19.00;99.90;;;;;;5058232;28;20032;-76
2022/08/03 00:06:11;;;;;;;2.58;2.42;;;19.00;99.90;;;;;;5049729;28;20025;-75
2022/08/03 00:08:36;;;;;;;2.40;2.30;;;19.00;99.90;;;;;;5046029;28;20174;-76
2022/08/03 00:11:03;;;;;;;2.90;2.58;;;18.90;99.90;;;;;;5058612;28;20579;-76
2022/08/03 00:13:28;;;;;;;3.85;2.58;;;18.90;99.90;;;;;;5070076;28;20039;-76
2022/08/03 00:15:54;;;;;;;2.78;2.58;;;18.90;99.90;;;;;;5054429;28;20016;-76
2022/08/03 00:18:20;;;;;;;2.83;2.58;;;18.80;99.90;;;;;;5049141;28;20051;-76
2022/08/03 00:20:46;;;;;;;2.47;2.28;;;18.80;99.90;;;;;;5052894;28;20024;-76
2022/08/03 00:23:11;;;;;;;2.75;2.55;;;18.80;99.90;;;;;;5076644;28;20083;-76
2022/08/03 00:25:37;;;;;;;2.75;2.50;;;18.70;99.90;;;;;;5050990;28;20082;-76
2022/08/03 00:28:04;;;;;;;2.60;2.30;;;18.70;99.90;;;;;;5059720;28;20086;-76
2022/08/03 00:30:31;;;;;;;6.10;2.85;;;18.70;99.90;;;;;;5042607;28;20057;-76
2022/08/03 00:32:57;;;;;;;7.25;2.85;;;18.70;99.90;;;;;;5050390;28;20071;-76
2022/08/03 00:35:23;;;;;;;2.78;2.58;;;18.70;99.90;;;;;;5076082;28;20038;-76
2022/08/03 00:37:49;;;;;;;2.75;2.50;;;18.60;99.90;;;;;;5047375;28;20057;-76
2022/08/03 00:40:16;;;;;;;3.05;2.70;;;18.60;99.90;;;;;;5049559;28;20090;-76
2022/08/03 00:42:58;;;;;;;3.20;2.90;;;18.60;99.90;;;;;;5044079;28;20020;-76
2022/08/03 00:45:26;;;;;;;2.55;2.35;;;18.50;99.90;;;;;;5052755;28;20028;-76
2022/08/03 00:47:53;;;;;;;2.95;2.67;;;18.50;99.90;;;;;;5062415;28;20047;-76
2022/08/03 00:50:21;;;;;;;4.32;2.47;;;18.50;99.90;;;;;;5064011;28;20020;-76
2022/08/03 00:52:50;;;;;;;5.05;2.90;;;18.40;99.90;;;;;;5060273;28;20080;-76
2022/08/03 00:55:16;;;;;;;5.28;2.92;;;18.40;99.90;;;;;;5058358;28;20120;-76
2022/08/03 00:57:42;;;;;;;3.92;2.88;;;18.40;99.90;;;;;;5050127;28;20083;-76
2022/08/03 01:00:10;;;;;;;4.95;3.00;;;18.40;99.90;;;;;;5056188;28;20028;-76
2022/08/03 01:02:37;;;;;;;3.03;2.60;;;18.30;99.90;;;;;;5066401;28;20617;-76
2022/08/03 01:05:03;;;;;;;2.90;2.60;;;18.30;99.90;;;;;;5073870;28;20395;-76
2022/08/03 01:07:31;;;;;;;2.70;2.50;;;18.30;99.90;;;;;;5077630;28;20020;-76
2022/08/03 01:10:18;;;;;;;2.67;2.47;;;18.30;99.90;;;;;;5064024;28;20032;-76
2022/08/03 01:13:06;;;;;;;2.70;2.50;;;18.20;99.90;;;;;;5081184;28;20040;-76
2022/08/03 01:15:44;;;;;;;2.75;2.55;;;18.20;99.90;;;;;;5057353;28;20443;-75
2022/08/03 01:18:21;;;;;;;4.15;2.95;;;18.20;99.90;;;;;;5057539;28;20563;-76
2022/08/03 01:20:50;;;;;;;3.45;2.85;;;18.20;99.90;;;;;;5054793;28;20079;-76
2022/08/03 01:23:45;;;;;;;4.30;2.90;;;18.10;99.90;;;;;;5059079;28;20029;-76
2022/08/03 01:26:10;;;;;;;3.03;2.80;;;18.10;99.90;;;;;;5063116;28;20675;-76
2022/08/03 01:29:21;;;;;;;3.40;3.10;;;18.10;99.90;;;;;;5052563;28;20107;-76
2022/08/03 01:32:00;;;;;;;3.20;2.90;;;18.10;99.90;;;;;;5034995;28;20432;-76
2022/08/03 01:34:30;;;;;;;4.38;3.20;;;18.00;99.90;;;;;;5063658;28;20032;-76
2022/08/03 01:36:58;;;;;;;3.45;2.90;;;18.10;99.90;;;;;;5059992;28;20349;-76
2022/08/03 01:39:25;;;;;;;3.03;2.75;;;18.00;99.90;;;;;;5060611;28;20287;-76
2022/08/03 01:41:58;;;;;;;3.97;2.75;;;17.90;99.90;;;;;;5067451;28;20047;-76
2022/08/03 01:44:28;;;;;;;3.85;3.03;;;17.90;99.90;;;;;;5051957;28;20023;-76
2022/08/03 01:46:57;;;;;;;3.10;2.90;;;17.90;99.90;;;;;;5051705;28;20021;-76
2022/08/03 01:49:24;;;;;;;3.00;2.78;;;17.90;99.90;;;;;;5066093;28;20642;-76
2022/08/03 01:51:51;;;;;;;3.20;3.00;;;17.90;99.90;;;;;;5067535;28;20103;-76
2022/08/03 01:54:17;;;;;;;4.05;3.33;;;17.90;99.90;;;;;;5064974;28;20222;-76
2022/08/03 01:56:45;;;;;;;3.20;3.00;;;17.90;99.90;;;;;;5053862;28;20028;-76
2022/08/03 01:59:13;;;;;;;3.97;3.10;;;17.90;99.90;;;;;;5082158;28;20022;-76
2022/08/03 02:01:40;;;;;;;3.38;3.08;;;17.90;99.90;;;;;;5064072;28;20074;-76
2022/08/03 02:04:07;;;;;;;3.58;3.08;;;17.90;99.90;;;;;;5060884;28;20033;-76
2022/08/03 02:06:35;;;;;;;5.07;3.60;;;17.90;99.90;;;;;;5056058;28;20099;-76
2022/08/03 02:09:02;;;;;;;4.13;3.30;;;17.90;99.90;;;;;;5077764;28;20506;-76
2022/08/03 02:11:31;;;;;;;3.60;3.30;;;17.80;99.90;;;;;;5067361;28;20020;-76
2022/08/03 02:14:01;;;;;;;3.47;3.20;;;17.80;99.90;;;;;;5072743;28;20044;-75
2022/08/03 02:16:29;;;;;;;3.70;3.33;;;17.70;99.90;;;;;;5064594;28;20036;-76
2022/08/03 02:18:57;;;;;;;3.40;3.10;;;17.70;99.90;;;;;;5068639;28;20395;-76
2022/08/03 02:21:22;;;;;;;3.08;2.88;;;17.60;99.90;;;;;;5061464;28;20431;-76
2022/08/03 02:23:48;;;;;;;3.42;3.13;;;17.60;99.90;;;;;;5062688;28;20090;-76
2022/08/03 02:26:18;;;;;;;3.40;3.10;;;17.60;99.90;;;;;;5071087;28;21105;-76
2022/08/03 02:28:48;;;;;;;3.78;3.47;;;17.60;99.90;;;;;;5063203;28;20138;-76
2022/08/03 02:31:18;;;;;;;3.53;3.20;;;17.50;99.90;;;;;;5071266;28;20403;-76
2022/08/03 02:33:49;;;;;;;4.00;3.60;;;17.50;99.90;;;;;;5066421;28;20032;-76
2022/08/03 02:36:20;;;;;;;4.57;3.60;;;17.50;99.90;;;;;;5070042;28;20553;-76
2022/08/03 02:38:50;;;;;;;3.80;3.50;;;17.50;99.90;;;;;;5057118;28;20076;-76
2022/08/03 02:41:19;;;;;;;4.60;3.63;;;17.50;99.90;;;;;;5071567;28;20136;-76
2022/08/03 02:43:49;;;;;;;5.60;3.97;;;17.40;99.90;;;;;;5068240;28;20028;-76
2022/08/03 02:46:18;;;;;;;5.18;3.53;;;17.40;99.90;;;;;;5054543;28;20085;-76
2022/08/03 02:48:46;;;;;;;4.13;3.72;;;17.40;99.90;;;;;;5047832;28;20032;-76
2022/08/03 02:51:12;;;;;;;5.28;3.80;;;17.30;99.90;;;;;;5062285;28;20044;-76
2022/08/03 02:53:39;;;;;;;4.15;3.85;;;17.40;99.90;;;;;;5069950;28;20055;-76
2022/08/03 02:56:16;;;;;;;4.88;4.38;;;17.40;99.90;;;;;;5060755;28;20032;-76
2022/08/03 02:58:44;;;;;;;3.85;3.55;;;17.40;99.90;;;;;;5058602;28;20032;-76
2022/08/03 03:01:11;;;;;;;5.22;4.03;;;17.30;99.90;;;;;;5060796;28;20033;-76
2022/08/03 03:03:37;;;;;;;4.03;3.60;;;17.40;99.90;;;;;;5064985;28;20127;-76
2022/08/03 03:06:04;;;;;;;4.38;3.97;;;17.30;99.90;;;;;;5060715;28;20029;-76
2022/08/03 03:08:30;;;;;;;4.50;4.10;;;17.30;99.90;;;;;;5059905;28;20025;-76
2022/08/03 03:10:58;;;;;;;4.47;4.00;;;17.30;99.90;;;;;;5068353;28;20515;-76
2022/08/03 03:13:24;;;;;;;4.20;3.80;;;17.10;99.90;;;;;;5069540;28;20033;-76
2022/08/03 03:15:50;;;;;;;3.78;3.47;;;17.10;99.90;;;;;;5071705;28;20028;-76
2022/08/03 03:18:17;;;;;;;4.68;3.63;;;17.10;99.90;;;;;;5060508;28;20028;-76
2022/08/03 03:20:44;;;;;;;4.75;3.55;;;17.10;99.90;;;;;;5059867;28;20612;-76
2022/08/03 03:23:10;;;;;;;3.47;3.28;;;17.00;99.90;;;;;;5061647;28;20478;-75
2022/08/03 03:25:37;;;;;;;3.60;3.40;;;17.00;99.90;;;;;;5063818;28;20430;-76
2022/08/03 03:28:04;;;;;;;4.32;3.10;;;16.90;99.90;;;;;;5067074;28;20017;-76
2022/08/03 03:30:29;;;;;;;4.00;3.70;;;16.90;99.90;;;;;;5067482;28;20093;-76
2022/08/03 03:32:57;;;;;;;3.80;3.42;;;16.90;99.90;;;;;;5057575;28;20775;-76
2022/08/03 03:35:23;;;;;;;3.78;3.50;;;16.90;99.90;;;;;;5054436;28;20120;-76
2022/08/03 03:37:49;;;;;;;3.90;3.50;;;16.90;99.90;;;;;;5051776;28;20493;-76
2022/08/03 03:40:14;;;;;;;3.67;3.38;;;16.90;99.90;;;;;;5044966;28;20044;-76
2022/08/03 03:42:40;;;;;;;5.68;3.65;;;16.90;99.90;;;;;;5056758;28;20020;-76
2022/08/03 03:45:07;;;;;;;5.57;3.47;;;16.90;99.90;;;;;;5087243;28;20547;-76
2022/08/03 03:47:34;;;;;;;4.47;3.33;;;16.90;99.90;;;;;;5056846;28;20036;-76
2022/08/03 03:50:02;;;;;;;5.10;4.00;;;16.90;99.90;;;;;;5065260;28;20491;-76
2022/08/03 03:52:28;;;;;;;4.18;3.80;;;16.90;99.90;;;;;;5060733;28;20520;-76
2022/08/03 03:54:54;;;;;;;4.28;3.88;;;16.90;99.90;;;;;;5054457;28;20036;-76
2022/08/03 03:57:19;;;;;;;4.22;3.83;;;16.90;99.90;;;;;;5046942;28;20090;-76
2022/08/03 03:59:45;;;;;;;4.60;4.20;;;16.90;99.90;;;;;;5044010;28;20712;-76
2022/08/03 04:02:11;;;;;;;4.28;3.90;;;16.90;99.90;;;;;;5064699;28;20055;-76
2022/08/03 04:13:11;;;;;;;4.97;3.97;;;17.00;99.90;;;;;;5063480;28;20035;-76
2022/08/03 04:15:39;;;;;;;5.45;4.50;;;17.00;99.90;;;;;;5050877;28;20424;-76
2022/08/03 04:18:06;;;;;;;8.52;5.05;;;17.00;99.90;;;;;;5061230;28;20264;-76
2022/08/03 04:20:35;;;;;;;5.03;4.53;;;16.90;99.90;;;;;;5058784;28;20052;-78
2022/08/03 04:23:02;;;;;;;5.20;4.70;;;16.90;99.90;;;;;;5051798;28;20029;-77
2022/08/03 04:25:31;;;;;;;6.75;4.90;;;16.90;99.90;;;;;;5077126;28;20029;-77
2022/08/03 04:28:00;;;;;;;5.88;4.18;;;16.90;99.90;;;;;;5055133;28;20044;-77
2022/08/03 04:30:27;;;;;;;6.05;4.57;;;16.90;99.90;;;;;;5050641;28;20162;-77
2022/08/03 04:32:55;;;;;;;5.03;4.60;;;16.90;99.90;;;;;;5065109;28;20031;-77
2022/08/03 04:35:23;;;;;;;5.03;4.60;;;16.90;99.90;;;;;;5081338;28;20031;-77
2022/08/03 04:37:51;;;;;;;6.18;4.72;;;17.00;99.90;;;;;;5053839;28;20052;-77
2022/08/03 04:40:29;;;;;;;8.77;4.75;;;17.00;99.90;;;;;;5067231;28;20062;-77
2022/08/03 04:42:56;;;;;;;4.68;4.10;;;17.10;99.90;;;;;;5060767;28;20024;-77
2022/08/03 04:45:23;;;;;;;6.18;3.90;;;17.10;99.90;;;;;;5053438;28;20028;-77
2022/08/03 04:47:50;;;;;;;5.63;4.45;;;17.10;99.90;;;;;;5063973;28;20040;-77
2022/08/03 04:50:16;;;;;;;6.88;4.38;;;17.20;99.90;;;;;;5049452;28;20029;-77
2022/08/03 04:52:43;;;;;;;5.55;4.65;;;17.30;99.90;;;;;;5062735;28;20325;-77
2022/08/03 04:55:08;;;;;;;5.25;4.32;;;17.40;99.90;;;;;;5076012;28;20027;-77
2022/08/03 04:57:34;;;;;;;5.60;4.55;;;17.60;99.90;;;;;;5068633;28;20484;-77
2022/08/03 05:00:00;;;;;;;8.00;4.30;;;17.80;99.90;;;;;;5048536;28;20025;-77
2022/08/03 05:02:25;;;;;;;5.75;4.35;;;17.90;99.90;;;;;;5059813;28;20875;-77
2022/08/03 05:04:51;;;;;;;6.45;4.30;;;18.00;99.90;;;;;;5051357;28;20494;-77
2022/08/03 05:07:18;;;;;;;4.80;4.22;;;18.00;99.90;;;;;;5065687;28;20024;-78
2022/08/03 05:09:44;;;;;;;5.05;4.07;;;;;;;;;;5071685;28;20053;-77
2022/08/03 05:12:10;;;;;;;5.38;4.32;;;;;;;;;;5078324;28;20020;-78
2022/08/03 05:14:37;;;;;;;5.10;4.28;;;;;;;;;;5064940;28;20039;-78
2022/08/03 05:17:04;;;;;;;6.47;4.30;;;;;;;;;;5068634;28;20220;-78
2022/08/03 05:19:30;;;;;;;6.13;3.92;;;;;;;;;;5065179;28;20509;-78
2022/08/03 05:21:56;;;;;;;4.63;3.90;;;18.20;99.90;;;;;;5076217;28;20432;-77
2022/08/03 05:24:21;;;;;;;5.55;4.00;;;18.10;99.90;;;;;;5065814;28;20089;-78
2022/08/03 05:26:47;;;;;;;6.65;3.78;;;18.10;99.90;;;;;;5074229;28;20031;-78
2022/08/03 05:29:13;;;;;;;4.88;3.70;;;18.10;99.90;;;;;;5087713;28;20036;-78
2022/08/03 05:31:39;;;;;;;3.85;3.55;;;18.10;99.90;;;;;;5067572;28;20033;-78
2022/08/03 05:34:05;;;;;;;3.90;3.58;;;18.10;99.90;;;;;;5063699;28;20044;-78
2022/08/03 05:36:30;;;;;;;4.50;3.65;;;18.10;99.90;;;;;;5052361;28;20101;-78
2022/08/03 05:38:56;;;;;;;4.05;3.60;;;18.10;99.90;;;;;;5056764;28;20033;-78
2022/08/03 05:41:22;;;;;;;4.40;3.38;;;18.00;99.90;;;;;;5064762;28;20109;-78
2022/08/03 05:43:48;;;;;;;3.80;3.38;;;18.00;99.90;;;;;;5089351;28;20127;-78
2022/08/03 05:46:13;;;;;;;3.70;3.40;;;18.10;99.90;;;;;;5079013;28;20313;-78
2022/08/03 05:48:40;;;;;;;3.78;3.45;;;18.10;99.90;;;;;;5067247;28;20085;-78
2022/08/03 05:51:09;;;;;;;8.73;4.63;;;18.20;99.90;;;;;;5070449;28;20236;-79
2022/08/03 05:53:36;;;;;;;5.72;4.47;;;18.20;99.90;;;;;;5066873;28;20489;-79
2022/08/03 05:56:02;;;;;;;4.40;4.00;;;18.30;99.90;;;;;;5058505;28;20089;-78
2022/08/03 05:58:28;;;;;;;4.35;3.97;;;18.40;99.90;;;;;;5083671;28;20656;-79
2022/08/03 06:00:53;;;;;;;5.75;4.07;;;18.50;99.90;;;;;;5083593;28;20043;-79
2022/08/03 06:03:19;;;;;;;8.80;4.10;;;18.60;99.90;;;;;;5073207;28;20519;-79
2022/08/03 06:05:45;;;;;;;5.00;4.50;;;18.70;99.90;;;;;;5069518;28;20082;-79
2022/08/03 06:08:11;;;;;;;6.20;4.47;;;18.70;99.90;;;;;;5056415;28;20222;-79
2022/08/03 06:10:37;;;;;;;4.47;4.07;;;18.80;99.90;;;;;;5065363;28;20070;-79
2022/08/03 06:13:03;;;;;;;5.78;4.10;;;18.80;99.90;;;;;;5068331;28;20082;-79
2022/08/03 06:15:29;;;;;;;7.82;4.47;;;18.90;99.90;;;;;;5089734;28;20035;-79
2022/08/03 06:17:56;;;;;;;5.35;4.40;;;18.80;99.90;;;;;;5082333;28;20501;-79
2022/08/03 06:20:22;;;;;;;4.38;3.97;;;18.80;99.90;;;;;;5060058;28;20056;-79
2022/08/03 06:22:48;;;;;;;4.30;3.90;;;18.80;99.90;;;;;;5061771;28;20102;-79
2022/08/03 06:25:15;;;;;;;4.95;4.40;;;18.80;99.90;;;;;;5048008;28;20031;-81
2022/08/03 06:27:41;;;;;;;4.25;3.75;;;18.80;99.90;;;;;;5062963;28;20036;-81
2022/08/03 06:30:09;;;;;;;5.57;4.25;;;18.80;99.90;;;;;;5064935;28;20020;-80
2022/08/03 06:32:35;;;;;;;4.55;4.00;;;18.80;99.90;;;;;;5065864;28;20081;-81
2022/08/03 06:35:01;;;;;;;5.40;3.97;;;18.80;99.90;;;;;;5088009;28;20069;-80
2022/08/03 06:37:27;;;;;;;4.07;3.67;;;18.90;99.90;;;;;;5073333;28;20525;-80
2022/08/03 06:39:53;;;;;;;4.85;4.10;;;18.90;99.90;;;;;;5060045;28;20032;-81
2022/08/03 06:42:19;;;;;;;3.58;3.28;;;19.00;99.90;;;;;;5057928;28;20029;-80
2022/08/03 06:44:44;;;;;;;4.70;3.70;;;19.10;99.90;;;;;;5054182;28;20115;-80
2022/08/03 06:47:12;;;;;;;4.40;4.00;;;;;;;;;;5068065;28;20029;-80
2022/08/03 06:49:37;;;;;;;4.50;4.10;;;19.40;99.90;;;;;;5065836;28;20557;-80
2022/08/03 06:52:04;;;;;;;6.80;4.22;;;19.60;99.90;;;;;;5050032;28;20029;-80
2022/08/03 06:54:29;;;;;;;7.22;4.22;;;19.80;99.90;;;;;;5047699;28;20078;-80
2022/08/03 06:56:55;;;;;;;7.72;4.80;;;20.00;99.90;;;;;;5053430;28;20044;-80
2022/08/03 06:59:21;;;;;;;4.90;3.80;;;20.30;99.90;;;;;;5045782;28;20017;-80
2022/08/03 07:01:46;;;;;;;6.97;4.65;;;20.60;99.90;;;;;;5054244;28;20032;-80
2022/08/03 07:04:12;;;;;;;6.25;3.80;;;20.90;99.90;;;;;;5058849;28;20298;-80
2022/08/03 07:06:38;;;;;;;6.03;4.28;;;21.20;99.90;;;;;;5061841;28;20077;-80
2022/08/03 07:09:04;;;;;;;4.05;3.70;;;21.50;99.90;;;;;;5065256;28;20296;-80
2022/08/03 07:11:30;;;;;;;5.50;3.78;;;21.90;99.90;;;;;;5064759;28;20455;-81
2022/08/03 07:13:55;;;;;;;7.53;3.72;;;22.30;99.90;;;;;;5053526;28;20060;-81
2022/08/03 07:16:21;;;;;;;4.00;3.45;;;22.80;99.90;;;;;;5050645;28;20467;-80
2022/08/03 07:18:47;;;;;;;3.45;3.15;;;22.80;99.90;;;;;;5052171;28;20062;-80
2022/08/03 07:21:15;;;;;;;7.60;3.30;;;;;;;;;;5062693;28;20025;-81
2022/08/03 07:23:41;;;;;;;6.53;3.20;;;23.30;99.90;;;;;;5052849;28;20438;-79
2022/08/03 07:26:06;;;;;;;4.70;2.90;;;23.60;99.90;;;;;;5077223;28;20028;-79
2022/08/03 07:28:32;;;;;;;5.13;2.70;;;23.90;99.90;;;;;;5064730;28;20036;-80
2022/08/03 07:30:58;;;;;;;5.20;2.80;;;24.10;99.90;;;;;;5054311;28;20028;-79
2022/08/03 07:33:24;;;;;;;5.22;2.72;;;24.30;99.90;;;;;;5054153;28;20496;-79
2022/08/03 07:35:49;;;;;;;10.15;2.60;;;24.40;99.90;;;;;;5074332;28;20028;-79
2022/08/03 07:38:15;;;;;;;4.00;2.40;;;24.50;99.90;;;;;;5070012;28;20544;-80
2022/08/03 07:40:41;;;;;;;7.45;2.40;;;24.50;99.90;;;;;;5061465;28;20029;-80
2022/08/03 07:43:06;;;;;;;3.30;2.40;;;24.60;99.90;;;;;;5067339;28;20025;-80
2022/08/03 07:45:32;;;;;;;4.82;2.42;;;24.70;99.90;;;;;;5062060;28;20024;-80
2022/08/03 07:47:58;;;;;;;2.30;2.10;;;24.90;99.90;;;;;;5069181;28;20027;-80
2022/08/03 07:50:23;;;;;;;2.67;2.40;;;25.10;99.90;;;;;;5063147;28;20025;-80
2022/08/03 07:52:51;;;;;;;3.90;2.30;;;25.30;99.90;;;;;;5059319;28;20029;-79
2022/08/03 07:55:23;;;;;;;6.45;2.30;;;25.50;98.30;;;;;;5074802;28;20385;-79
2022/08/03 07:58:01;;;;;;;8.15;2.20;;;25.60;98.70;;;;;;5049773;28;20042;-80
2022/08/03 08:00:27;;;;;;;3.75;2.25;;;;;;;;;;5055308;28;20025;-78
2022/08/03 08:02:53;;;;;;;5.80;2.53;;;;;;;;;;5063210;28;20385;-80
2022/08/03 08:05:20;;;;;;;2.80;2.03;;;;;;;;;;5057622;28;20029;-79
2022/08/03 08:07:46;;;;;;;5.63;2.75;;;;;;;;;;5064736;28;20284;-79
2022/08/03 08:10:12;;;;;;;3.15;2.10;;;;;;;;;;5051826;28;20432;-79
2022/08/03 08:12:38;;;;;;;3.50;2.20;;;;;;;;;;5044377;28;20052;-79
2022/08/03 08:15:05;;;;;;;2.40;1.73;;;26.90;92.10;;;;;;5047141;28;20563;-80
2022/08/03 08:17:56;;;;;;;7.15;2.10;;;26.90;92.20;;;;;;5049899;28;20036;-79
2022/08/03 08:20:28;;;;;;;4.85;2.10;;;27.00;92.20;;;;;;5058479;28;20290;-79
2022/08/03 08:23:02;;;;;;;3.40;2.08;;;27.00;91.50;;;;;;5048674;28;20024;-80
2022/08/03 08:25:30;;;;;;;1.92;1.70;;;27.10;91.20;;;;;;5059637;28;20071;-80
2022/08/03 08:27:56;;;;;;;2.55;1.77;;;27.30;90.20;;;;;;5061824;28;20032;-79
2022/08/03 08:30:22;;;;;;;4.55;1.80;;;27.40;90.10;;;;;;5053056;28;20056;-82
2022/08/03 08:32:49;;;;;;;5.13;1.73;;;27.50;89.90;;;;;;5064569;28;20033;-80
2022/08/03 08:35:16;;;;;;;1.98;1.70;;;27.50;88.30;;;;;;5049295;28;20079;-82
2022/08/03 08:37:42;;;;;;;2.05;1.58;;;27.60;87.00;;;;;;5064212;28;20480;-79
2022/08/03 08:40:09;;;;;;;2.55;1.67;;;27.70;85.70;;;;;;5046329;28;20057;-80
2022/08/03 08:42:40;;;;;;;1.98;1.55;;;27.70;83.30;;;;;;5046583;28;20033;-80
2022/08/03 08:45:08;;;;;;;2.92;1.40;;;27.80;81.80;;;;;;5059326;28;20074;-80
2022/08/03 08:47:37;;;;;;;2.33;1.70;;;27.90;84.00;;;;;;5061076;28;20090;-79
2022/08/03 08:50:03;;;;;;;3.22;1.33;;;28.00;83.20;;;;;;5048168;28;20025;-80
2022/08/03 08:52:30;;;;;;;3.60;1.30;;;28.10;82.70;;;;;;5043806;28;20024;-80
2022/08/03 08:55:02;;;;;;;2.72;1.30;;;28.30;79.80;;;;;;5045102;28;20035;-80
2022/08/03 08:57:34;;;;;;;5.13;1.30;;;28.30;78.40;;;;;;5045765;28;20610;-80
2022/08/03 09:00:01;;;;;;;2.13;1.50;;;28.40;76.90;;;;;;5059959;28;20094;-80
2022/08/03 09:02:29;;;;;;;3.50;1.67;;;28.50;75.10;;;;;;5055310;28;20082;-79
2022/08/03 09:04:55;;;;;;;1.30;1.20;;;28.50;74.80;;;;;;5068142;28;20032;-79
2022/08/03 09:07:21;;;;;;;3.65;1.38;;;28.60;74.10;;;;;;5057430;28;20024;-79
2022/08/03 09:09:47;;;;;;;1.60;1.50;;;28.60;73.90;;;;;;5063608;28;20102;-79
2022/08/03 09:12:13;;;;;;;7.25;1.90;;;28.60;72.10;;;;;;5042874;28;20037;-79
2022/08/03 09:14:39;;;;;;;7.22;1.50;;;28.80;72.90;;;;;;5060161;28;20275;-79
2022/08/03 09:17:05;;;;;;;3.58;1.40;;;28.80;72.60;;;;;;5058622;28;20473;-78
2022/08/03 09:19:32;;;;;;;3.72;1.50;;;;;;;;;;5051240;28;20035;-78
2022/08/03 09:22:11;;;;;;;3.83;1.60;;;29.10;70.30;;;;;;5067116;28;20028;-79
2022/08/03 09:24:38;;;;;;;6.28;1.30;;;29.10;71.80;;;;;;5048553;28;20059;-78
2022/08/03 09:27:06;;;;;;;1.35;1.20;;;29.20;69.70;;;;;;5063745;28;20039;-79
2022/08/03 09:29:32;;;;;;;2.92;1.73;;;29.30;67.80;;;;;;5055694;28;20036;-78
2022/08/03 09:32:01;;;;;;;1.52;1.20;;;29.30;67.80;;;;;;5062141;28;20025;-78
2022/08/03 09:34:27;;;;;;;4.93;1.50;;;29.40;68.50;;;;;;5048794;28;20970;-78
2022/08/03 09:36:54;;;;;;;3.67;1.50;;;29.50;68.10;;;;;;5065194;28;20033;-79
2022/08/03 09:39:25;;;;;;;1.30;1.20;;;29.60;67.20;;;;;;5047681;28;20374;-79
2022/08/03 09:42:11;;;;;;;1.77;1.38;;;29.60;66.40;;;;;;5063639;28;20051;-79
2022/08/03 09:44:42;;;;;;;3.00;1.40;;;29.70;63.70;;;;;;5048143;28;20033;-79
2022/08/03 09:47:09;;;;;;;1.88;1.10;;;29.80;64.40;;;;;;5059908;28;20031;-79
2022/08/03 09:49:36;;;;;;;1.75;1.15;;;29.90;63.60;;;;;;5048881;28;20100;-79
2022/08/03 09:52:13;;;;;;;2.88;1.30;;;30.00;63.80;;;;;;5065541;28;20108;-79
2022/08/03 09:54:39;;;;;;;3.40;1.20;;;30.10;62.30;;;;;;5067631;28;20041;-79
2022/08/03 09:57:04;;;;;;;4.57;1.20;;;30.10;61.80;;;;;;5065843;28;20373;-79
2022/08/03 09:59:32;;;;;;;4.00;1.30;;;30.20;61.80;;;;;;5059272;28;20032;-79
2022/08/03 10:02:01;;;;;;;3.90;1.17;;;30.30;61.90;;;;;;5049678;28;20029;-79
2022/08/03 10:04:27;;;;;;;3.58;1.55;;;30.30;60.10;;;;;;5049662;28;20045;-79
2022/08/03 10:07:08;;;;;;;3.72;1.50;;;30.30;60.60;;;;;;5060928;28;20027;-79
2022/08/03 10:09:34;;;;;;;1.42;1.15;;;30.30;59.40;;;;;;5056333;28;20047;-79
2022/08/03 10:12:11;;;;;;;2.78;1.40;;;30.40;59.70;;;;;;5060264;28;20035;-79
2022/08/03 10:14:39;;;;;;;2.22;1.40;;;30.50;58.90;;;;;;5049156;28;20033;-77
2022/08/03 10:17:05;;;;;;;1.67;1.17;;;30.50;59.80;;;;;;5049932;28;20116;-75
2022/08/03 10:19:32;;;;;;;4.18;1.50;;;30.60;59.90;;;;;;5050231;28;20398;-77
2022/08/03 10:22:10;;;;;;;6.47;1.30;;;30.60;58.80;;;;;;5059396;28;20021;-78
2022/08/03 10:24:38;;;;;;;3.90;1.30;;;30.60;57.00;;;;;;5052533;28;20035;-78
2022/08/03 10:27:07;;;;;;;1.63;1.10;;;30.70;61.10;;;;;;5048828;28;20405;-78
2022/08/03 10:29:37;;;;;;;4.78;1.30;;;30.70;59.40;;;;;;5047026;28;20025;-78
2022/08/03 10:32:18;;;;;;;3.15;1.35;;;30.80;59.40;;;;;;5065252;28;20130;-78
2022/08/03 10:34:45;;;;;;;2.03;1.15;;;30.90;56.80;;;;;;5048863;28;20044;-79
2022/08/03 10:37:12;;;;;;;1.85;1.38;;;31.00;58.70;;;;;;5051040;28;20141;-78
2022/08/03 10:39:52;;;;;;;1.98;1.20;;;31.00;58.30;;;;;;5047853;28;20025;-78
2022/08/03 10:42:22;;;;;;;4.00;1.40;;;31.00;56.50;;;;;;5049458;28;20025;-78
2022/08/03 10:44:50;;;;;;;1.42;1.20;;;31.00;58.00;;;;;;5058288;28;20052;-78
2022/08/03 10:47:16;;;;;;;5.47;1.33;;;31.10;57.20;;;;;;5050075;28;20508;-78
2022/08/03 10:49:42;;;;;;;4.80;1.23;;;31.20;56.60;;;;;;5043954;28;20021;-79
2022/08/03 10:52:08;;;;;;;5.35;1.30;;;31.20;56.60;;;;;;5047893;28;20043;-79
2022/08/03 10:57:41;;;;;;;3.28;1.40;;;31.30;57.60;;;;;;5053836;28;20630;-79
2022/08/03 11:00:08;;;;;;;1.92;1.30;;;31.40;56.60;;;;;;5051289;28;20028;-79
2022/08/03 11:03:13;;;;;;;1.98;1.30;;;31.40;55.80;;;;;;5051975;28;20075;-79
2022/08/03 11:05:47;;;;;;;3.92;1.52;;;31.40;55.40;;;;;;5047261;28;20035;-75
2022/08/03 11:08:27;;;;;;;2.95;1.20;;;31.40;53.70;;;;;;5064652;28;20032;-77
2022/08/03 11:10:58;;;;;;;1.73;1.20;;;31.40;54.10;;;;;;5054076;28;20074;-76
2022/08/03 11:13:27;;;;;;;3.47;1.30;;;31.50;55.50;;;;;;5056223;28;20025;-76
2022/08/03 11:15:54;;;;;;;3.70;1.30;;;31.60;55.60;;;;;;5048402;28;20060;-76
2022/08/03 11:18:20;;;;;;;1.65;1.30;;;31.80;55.50;;;;;;5065484;28;20240;-77
2022/08/03 11:20:54;;;;;;;4.10;1.25;;;31.90;55.90;;;;;;5061982;28;20028;-75
2022/08/03 11:23:40;;;;;;;2.53;1.20;;;31.90;55.80;;;;;;5060257;28;20059;-75
2022/08/03 11:26:21;;;;;;;4.47;1.55;;;31.80;54.60;;;;;;5067491;28;20556;-75
2022/08/03 11:28:47;;;;;;;2.47;1.20;;;31.80;54.10;;;;;;5071680;28;20032;-75
2022/08/03 11:31:21;;;;;;;4.60;1.10;;;31.90;53.20;;;;;;5048893;28;20033;-75
2022/08/03 11:34:04;;;;;;;1.90;1.20;;;32.00;53.20;;;;;;5071963;28;20031;-75
2022/08/03 11:36:30;;;;;;;3.45;1.20;;;32.10;53.90;;;;;;5071200;28;20315;-75
2022/08/03 11:39:16;;;;;;;1.20;1.05;;;32.10;52.90;;;;;;5061236;28;20125;-74
2022/08/03 11:41:41;;;;;;;1.42;1.15;;;32.10;53.50;;;;;;5059804;28;20032;-75
2022/08/03 11:44:07;;;;;;;1.25;1.10;;;32.10;52.40;;;;;;5051187;28;20480;-74
2022/08/03 11:46:36;;;;;;;2.22;1.02;;;32.10;53.80;;;;;;5064738;28;20029;-75
2022/08/03 11:49:06;;;;;;;3.53;1.17;;;32.20;53.70;;;;;;5050405;28;20524;-75
2022/08/03 11:51:32;;;;;;;2.80;1.10;;;32.40;53.90;;;;;;5048916;28;20036;-74
2022/08/03 11:54:03;;;;;;;2.20;1.17;;;32.50;52.30;;;;;;5066609;28;20380;-76
2022/08/03 11:56:46;;;;;;;2.58;1.20;;;32.60;52.80;;;;;;5052359;28;20066;-76
2022/08/03 11:59:11;;;;;;;;;;;32.70;53.70;;;;;;5046012;28;20035;-77
2022/08/03 12:01:38;;;;;;;2.85;1.30;;;32.70;52.60;;;;;;5045293;28;21304;-76
2022/08/03 12:04:05;;;;;;;3.78;1.20;;;32.70;52.30;;;;;;5049756;28;20032;-75
2022/08/03 12:06:53;;;;;;;1.95;0.90;;;32.80;51.50;;;;;;5046826;28;20028;-73
2022/08/03 12:09:16;;;;;;;3.88;1.13;;;32.80;52.20;;;;;;5056598;28;20060;-76
2022/08/03 12:11:42;;;;;;;1.00;1.00;;;32.90;51.80;;;;;;5060606;28;20588;-75
2022/08/03 12:14:15;;;;;;;2.42;1.15;;;33.00;51.30;;;;;;5054723;28;20374;-75
2022/08/03 12:16:46;;;;;;;3.63;1.25;;;33.10;51.60;;;;;;5050257;28;20397;-75
2022/08/03 12:19:11;;;;;;;2.80;1.10;;;33.30;51.20;;;;;;5044759;28;20036;-74
2022/08/03 12:21:48;;;;;;;1.15;1.02;;;33.50;49.90;;;;;;5054009;28;20025;-75
2022/08/03 12:24:14;;;;;;;1.05;0.93;;;33.50;50.40;;;;;;5051288;28;20554;-74
2022/08/03 12:26:48;;;;;;;2.70;1.13;;;33.50;51.20;;;;;;5062828;28;20150;-74
2022/08/03 12:29:17;;;;;;;2.08;1.00;;;33.50;52.10;;;;;;5051308;28;20028;-74
2022/08/03 12:31:43;;;;;;;4.55;1.13;;;33.60;51.60;;;;;;5062634;28;20520;-74
2022/08/03 12:34:08;;;;;;;1.92;1.10;;;33.50;50.40;;;;;;5046777;28;20041;-74
2022/08/03 12:36:36;;;;;;;1.23;1.00;;;33.50;51.10;;;;;;5055080;28;20116;-74
2022/08/03 12:39:06;;;;;;;2.05;1.00;;;33.50;50.60;;;;;;5043036;28;20709;-74
2022/08/03 12:41:35;;;;;;;1.35;1.00;;;33.50;50.60;;;;;;5055673;28;20549;-74
2022/08/03 12:44:06;;;;;;;1.27;0.90;;;33.50;48.80;;;;;;5051999;28;20076;-74
2022/08/03 12:46:35;;;;;;;4.70;1.00;;;33.60;50.40;;;;;;5046122;28;20381;-75
2022/08/03 12:49:04;;;;;;;1.95;1.17;;;33.80;49.10;;;;;;5055391;28;20028;-75
2022/08/03 12:51:32;;;;;;;1.35;1.10;;;33.80;47.80;;;;;;5064551;28;20564;-74
2022/08/03 12:53:58;;;;;;;1.85;0.88;;;33.80;49.90;;;;;;5057244;28;20036;-74
2022/08/03 12:56:24;;;;;;;2.30;0.90;;;33.90;50.50;;;;;;5064572;28;20024;-75
2022/08/03 12:58:51;;;;;;;1.98;0.85;;;33.90;50.20;;;;;;5052677;28;20036;-75
2022/08/03 13:01:17;;;;;;;1.67;0.90;;;34.00;49.00;;;;;;5062426;28;20124;-74
2022/08/03 13:03:47;;;;;;;1.85;1.00;;;34.10;48.80;;;;;;5060821;28;20128;-74
2022/08/03 13:06:19;;;;;;;3.03;1.13;;;34.20;50.70;;;;;;5068072;28;20074;-75
2022/08/03 13:08:46;;;;;;;3.42;1.00;;;34.20;48.60;;;;;;4359305;28;10000786;-74